Time;durP1;ratioP1;P1;durP2;ratioP2;P2;SDS_P1;SDS_P2;PMS_P1;PMS_P2;Temp;Humidity;BMP_temperature;BMP_pressure;BME280_temperature;BME280_humidity;BME280_pressure;Samples;Min_cycle;Max_cycle;Signal;HPM_P1;HPM_P2
2024/01/01 00:00:35;;;;;;;19.67;14.57;;;8.90;99.90;;;;;;5035971;28;20193;-76
2024/01/01 00:03:01;;;;;;;22.77;16.90;;;8.90;99.90;;;;;;5038407;28;20278;-74
2024/01/01 00:05:27;;;;;;;23.13;17.40;;;8.90;99.90;;;;;;5033927;28;20189;-74
2024/01/01 00:07:52;;;;;;;26.10;21.03;;;8.90;99.90;;;;;;5031810;28;20179;-77
2024/01/01 00:10:19;;;;;;;22.90;19.17;;;8.90;99.90;;;;;;5015707;28;20284;-77
2024/01/01 00:12:46;;;;;;;33.27;22.63;;;8.90;99.90;;;;;;5013660;28;20190;-75
2024/01/01 00:15:11;;;;;;;25.87;21.90;;;9.00;99.90;;;;;;5032921;28;20937;-74
2024/01/01 00:17:37;;;;;;;26.70;21.43;;;8.90;99.90;;;;;;5035129;28;20439;-75
2024/01/01 00:20:05;;;;;;;27.27;21.60;;;9.00;99.90;;;;;;5018517;28;20182;-74
2024/01/01 00:22:31;;;;;;;24.90;20.47;;;9.00;99.90;;;;;;5019761;28;20428;-74
2024/01/01 00:24:57;;;;;;;28.20;20.73;;;9.00;99.90;;;;;;5036430;28;20455;-76
2024/01/01 00:27:24;;;;;;;25.73;20.13;;;9.00;99.90;;;;;;5036491;28;20202;-77
2024/01/01 00:29:50;;;;;;;24.70;20.37;;;9.00;99.90;;;;;;5036124;28;20514;-77
2024/01/01 00:32:16;;;;;;;25.00;19.00;;;9.00;99.90;;;;;;5036947;28;20432;-78
2024/01/01 00:34:42;;;;;;;22.20;15.20;;;9.00;99.90;;;;;;5018034;28;20182;-74
2024/01/01 00:37:08;;;;;;;18.50;14.20;;;9.00;99.90;;;;;;5036729;28;20432;-74
2024/01/01 00:39:34;;;;;;;18.10;12.87;;;9.00;99.90;;;;;;5035344;28;20443;-75
2024/01/01 00:42:00;;;;;;;16.37;11.70;;;9.00;99.90;;;;;;5036598;28;20421;-77
2024/01/01 00:44:26;;;;;;;20.70;11.83;;;9.00;99.90;;;;;;5036068;28;20331;-76
2024/01/01 00:46:52;;;;;;;13.70;10.13;;;9.00;99.90;;;;;;5017897;28;20225;-75
2024/01/01 00:49:17;;;;;;;10.67;8.53;;;9.00;99.90;;;;;;5036137;28;20959;-74
2024/01/01 00:51:43;;;;;;;13.83;8.07;;;9.00;99.90;;;;;;5035128;28;20429;-77
2024/01/01 00:54:11;;;;;;;15.27;8.50;;;9.00;99.90;;;;;;5035756;28;20179;-74
2024/01/01 00:56:37;;;;;;;12.43;7.73;;;9.00;99.90;;;;;;5035486;28;20428;-73
2024/01/01 00:59:02;;;;;;;12.17;7.57;;;9.10;99.90;;;;;;5035783;28;20447;-74
2024/01/01 01:01:28;;;;;;;10.93;8.20;;;9.00;99.90;;;;;;5018300;28;20279;-75
2024/01/01 01:03:54;;;;;;;10.37;7.40;;;9.10;99.90;;;;;;5016921;28;20296;-80
2024/01/01 01:06:20;;;;;;;14.37;7.70;;;9.00;99.90;;;;;;5034829;28;20243;-78
2024/01/01 01:08:46;;;;;;;13.93;7.90;;;9.00;99.90;;;;;;5017422;28;20229;-78
2024/01/01 01:11:12;;;;;;;11.97;8.77;;;9.10;99.90;;;;;;5033350;28;20486;-77
2024/01/01 01:13:38;;;;;;;13.70;8.03;;;9.10;99.90;;;;;;5033153;28;20844;-76
2024/01/01 01:16:04;;;;;;;17.07;8.43;;;9.10;99.90;;;;;;5017281;28;20475;-80
2024/01/01 01:18:29;;;;;;;11.00;7.83;;;9.10;99.90;;;;;;5035574;28;20210;-77
2024/01/01 01:20:55;;;;;;;17.20;8.23;;;9.10;99.90;;;;;;5035124;28;20904;-80
2024/01/01 01:23:21;;;;;;;14.63;8.27;;;9.10;99.90;;;;;;5018633;28;20190;-77
2024/01/01 01:25:46;;;;;;;13.67;7.70;;;9.10;99.90;;;;;;5016882;28;20181;-77
2024/01/01 01:28:21;;;;;;;12.10;7.13;;;9.10;99.90;;;;;;5018583;28;20186;-77
2024/01/01 01:30:47;;;;;;;10.57;6.17;;;9.10;99.90;;;;;;5034840;28;20189;-77
2024/01/01 01:33:12;;;;;;;12.87;7.07;;;9.00;99.90;;;;;;5035902;28;20437;-80
2024/01/01 01:35:38;;;;;;;12.73;6.87;;;9.10;99.90;;;;;;5035202;28;20292;-81
2024/01/01 01:38:04;;;;;;;10.40;5.77;;;9.10;99.90;;;;;;5036251;28;20632;-77
2024/01/01 01:40:29;;;;;;;10.57;5.40;;;9.10;99.90;;;;;;5017965;28;20574;-78
2024/01/01 01:42:55;;;;;;;8.40;6.20;;;9.10;99.90;;;;;;5017155;28;20229;-77
2024/01/01 01:45:22;;;;;;;12.63;5.13;;;9.00;99.90;;;;;;5017908;28;20193;-79
2024/01/01 01:47:48;;;;;;;9.53;5.37;;;9.10;99.90;;;;;;5035022;28;20307;-78
2024/01/01 01:50:15;;;;;;;9.63;5.63;;;9.00;99.90;;;;;;5035115;28;20464;-79
2024/01/01 01:52:42;;;;;;;8.07;4.20;;;9.00;99.90;;;;;;5034797;28;20421;-77
2024/01/01 01:55:09;;;;;;;6.60;4.30;;;9.00;99.90;;;;;;5035308;28;20516;-81
2024/01/01 01:57:36;;;;;;;9.53;3.70;;;9.10;99.90;;;;;;5016132;28;20420;-76
2024/01/01 02:00:04;;;;;;;10.87;4.17;;;9.10;99.90;;;;;;5036199;28;20436;-76
2024/01/01 02:02:33;;;;;;;12.87;4.60;;;9.00;99.90;;;;;;5017776;28;21068;-76
2024/01/01 02:04:59;;;;;;;6.53;3.47;;;9.10;99.90;;;;;;5035560;28;20420;-79
2024/01/01 02:07:24;;;;;;;8.83;2.70;;;9.10;99.90;;;;;;5035037;28;20770;-77
2024/01/01 02:09:50;;;;;;;6.73;4.07;;;9.00;99.90;;;;;;5032049;28;20234;-79
2024/01/01 02:12:16;;;;;;;5.30;2.70;;;9.00;99.90;;;;;;5035253;28;20214;-78
2024/01/01 02:14:41;;;;;;;8.50;4.03;;;9.00;99.90;;;;;;5034226;28;20236;-78
2024/01/01 02:17:07;;;;;;;8.27;2.97;;;9.00;99.90;;;;;;5034992;28;20193;-78
2024/01/01 02:19:33;;;;;;;10.30;2.90;;;9.00;99.90;;;;;;5034425;28;20840;-77
2024/01/01 02:21:59;;;;;;;3.50;3.10;;;9.00;99.90;;;;;;5035468;28;20182;-79
2024/01/01 02:24:25;;;;;;;10.53;3.43;;;9.00;99.90;;;;;;5016974;28;20468;-80
2024/01/01 02:26:51;;;;;;;5.70;2.77;;;9.00;99.90;;;;;;5034106;28;20210;-78
2024/01/01 02:29:17;;;;;;;7.40;2.53;;;9.00;99.90;;;;;;5034774;28;20503;-78
2024/01/01 02:31:43;;;;;;;6.33;2.33;;;8.90;99.90;;;;;;5034289;28;20198;-77
2024/01/01 02:34:09;;;;;;;5.07;3.10;;;8.90;99.90;;;;;;5035038;28;20857;-79
2024/01/01 02:36:39;;;;;;;9.43;2.57;;;8.90;99.90;;;;;;5034022;28;20426;-79
2024/01/01 02:39:06;;;;;;;4.77;2.03;;;8.90;99.90;;;;;;5017280;28;20600;-79
2024/01/01 02:41:33;;;;;;;6.87;2.20;;;8.90;99.90;;;;;;5034485;28;20429;-77
2024/01/01 02:43:59;;;;;;;8.30;2.23;;;8.80;99.90;;;;;;5018798;28;20441;-76
2024/01/01 02:46:24;;;;;;;5.80;2.90;;;8.80;99.90;;;;;;5022425;28;20441;-76
2024/01/01 02:48:50;;;;;;;5.10;1.60;;;8.80;99.90;;;;;;5039014;28;20997;-79
2024/01/01 02:51:16;;;;;;;4.63;1.37;;;8.70;99.90;;;;;;5034391;28;20665;-79
2024/01/01 02:53:41;;;;;;;3.50;1.63;;;8.60;99.90;;;;;;5034412;28;20727;-78
2024/01/01 02:56:19;;;;;;;3.93;1.40;;;8.60;99.90;;;;;;5016765;28;20201;-79
2024/01/01 02:58:46;;;;;;;4.50;1.40;;;8.50;99.90;;;;;;5033701;28;20256;-79
2024/01/01 03:01:12;;;;;;;4.60;1.17;;;8.40;99.90;;;;;;5017348;28;20495;-78
2024/01/01 03:03:37;;;;;;;2.30;1.27;;;8.30;99.90;;;;;;5016211;28;20424;-79
2024/01/01 03:06:04;;;;;;;4.47;1.20;;;8.20;99.90;;;;;;5016466;28;20198;-79
2024/01/01 03:08:29;;;;;;;5.03;1.40;;;8.20;99.90;;;;;;5033857;28;20464;-75
2024/01/01 03:10:55;;;;;;;3.53;1.50;;;8.20;99.90;;;;;;5034095;28;20457;-78
2024/01/01 03:13:21;;;;;;;3.73;1.40;;;8.20;99.90;;;;;;5016942;28;20232;-77
2024/01/01 03:15:46;;;;;;;4.43;1.60;;;8.10;99.90;;;;;;5032731;28;20192;-76
2024/01/01 03:18:17;;;;;;;5.43;1.70;;;8.10;99.90;;;;;;5016769;28;20194;-77
2024/01/01 03:20:42;;;;;;;3.40;1.27;;;8.10;99.90;;;;;;5033534;28;20193;-77
2024/01/01 03:23:08;;;;;;;4.60;2.10;;;8.10;99.90;;;;;;5016885;28;20428;-78
2024/01/01 03:25:34;;;;;;;6.03;1.80;;;8.20;99.90;;;;;;5015174;28;20633;-76
2024/01/01 03:28:00;;;;;;;9.00;2.10;;;8.10;99.90;;;;;;5034484;28;20428;-75
2024/01/01 03:30:25;;;;;;;3.53;1.50;;;8.20;99.90;;;;;;4998810;28;21142;-79
2024/01/01 03:32:51;;;;;;;5.80;1.60;;;8.20;99.90;;;;;;5033336;28;20189;-76
2024/01/01 03:35:19;;;;;;;4.30;1.83;;;8.10;99.90;;;;;;5016814;28;20662;-77
2024/01/01 03:37:45;;;;;;;4.10;1.53;;;8.10;99.90;;;;;;5033460;28;20182;-77
2024/01/01 03:40:11;;;;;;;6.70;2.17;;;8.10;99.90;;;;;;5034216;28;20439;-78
2024/01/01 03:42:36;;;;;;;5.13;1.70;;;8.10;99.90;;;;;;5032478;28;20421;-76
2024/01/01 03:45:02;;;;;;;7.73;2.17;;;8.20;99.90;;;;;;5034134;28;20452;-80
2024/01/01 03:47:28;;;;;;;6.43;1.40;;;8.20;99.90;;;;;;5015129;28;20643;-76
2024/01/01 03:49:55;;;;;;;5.27;1.60;;;8.20;99.90;;;;;;5034023;28;20222;-80
2024/01/01 03:52:21;;;;;;;12.97;2.10;;;8.20;99.90;;;;;;5015469;28;20519;-78
2024/01/01 03:54:46;;;;;;;6.60;1.97;;;8.20;99.90;;;;;;5033114;28;20432;-79
2024/01/01 03:57:12;;;;;;;4.23;1.77;;;8.20;99.90;;;;;;5034077;28;20437;-75
2024/01/01 03:59:38;;;;;;;6.17;2.27;;;8.20;99.90;;;;;;5015519;28;20690;-79
2024/01/01 04:02:05;;;;;;;8.97;1.80;;;8.20;99.90;;;;;;5033967;28;20190;-78
2024/01/01 04:04:31;;;;;;;5.73;1.70;;;8.20;99.90;;;;;;5032438;28;20181;-80
2024/01/01 04:06:56;;;;;;;7.80;2.00;;;8.20;99.90;;;;;;5034715;28;20941;-78
2024/01/01 04:09:22;;;;;;;6.70;1.83;;;8.20;99.90;;;;;;5021435;28;20813;-76
2024/01/01 04:11:48;;;;;;;6.63;2.43;;;8.20;99.90;;;;;;5020691;28;20189;-79
2024/01/01 04:14:14;;;;;;;5.37;1.73;;;8.20;99.90;;;;;;5016584;28;20182;-79
2024/01/01 04:16:39;;;;;;;10.70;3.60;;;8.20;99.90;;;;;;5032962;28;20240;-80
2024/01/01 04:19:05;;;;;;;8.10;2.30;;;8.20;99.90;;;;;;5016241;28;20441;-77
2024/01/01 04:21:31;;;;;;;9.37;1.63;;;8.20;99.90;;;;;;5015282;28;20228;-81
2024/01/01 04:23:58;;;;;;;9.70;3.50;;;8.20;99.90;;;;;;5033713;28;20182;-78
2024/01/01 04:26:24;;;;;;;7.90;2.30;;;8.20;99.90;;;;;;5014783;28;20288;-77
2024/01/01 04:28:50;;;;;;;9.67;2.50;;;8.20;99.90;;;;;;5016080;28;20471;-77
2024/01/01 04:31:16;;;;;;;7.00;1.80;;;8.20;99.90;;;;;;5033541;28;20434;-77
2024/01/01 04:33:41;;;;;;;10.87;2.40;;;8.20;99.90;;;;;;5032186;28;20186;-80
2024/01/01 04:36:07;;;;;;;7.80;2.30;;;8.20;99.90;;;;;;5032276;28;20963;-81
2024/01/01 04:38:33;;;;;;;8.97;2.10;;;8.20;99.90;;;;;;5032248;28;20183;-78
2024/01/01 04:40:58;;;;;;;9.10;2.27;;;8.20;99.90;;;;;;5000133;28;20189;-77
2024/01/01 04:43:25;;;;;;;10.07;4.10;;;8.20;99.90;;;;;;5032854;28;20852;-76
2024/01/01 04:45:51;;;;;;;3.80;2.00;;;8.20;99.90;;;;;;5015689;28;20205;-78
2024/01/01 04:48:17;;;;;;;11.67;3.07;;;8.20;99.90;;;;;;5033148;28;20933;-79
2024/01/01 04:50:43;;;;;;;8.17;3.00;;;8.20;99.90;;;;;;5031921;28;21082;-77
2024/01/01 04:53:08;;;;;;;12.97;2.30;;;8.30;99.90;;;;;;5015743;28;20452;-78
2024/01/01 04:55:34;;;;;;;9.50;2.80;;;8.30;99.90;;;;;;5031834;28;20240;-79
2024/01/01 04:58:00;;;;;;;6.50;1.80;;;8.30;99.90;;;;;;5033691;28;20190;-77
2024/01/01 05:00:25;;;;;;;7.53;1.93;;;8.30;99.90;;;;;;5032004;28;20718;-80
2024/01/01 05:02:55;;;;;;;7.73;2.70;;;8.30;99.90;;;;;;5017412;28;20186;-80
2024/01/01 05:05:22;;;;;;;7.40;1.90;;;8.30;99.90;;;;;;5036280;28;20193;-76
2024/01/01 05:07:51;;;;;;;6.40;2.10;;;8.30;99.90;;;;;;5036986;28;20515;-77
2024/01/01 05:10:17;;;;;;;15.50;2.40;;;8.30;99.90;;;;;;5018233;28;20455;-80
2024/01/01 05:12:44;;;;;;;12.67;2.60;;;8.30;99.90;;;;;;5018179;28;20424;-77
2024/01/01 05:15:11;;;;;;;7.03;2.23;;;8.30;99.90;;;;;;5036812;28;20186;-77
2024/01/01 05:17:37;;;;;;;8.17;2.13;;;8.30;99.90;;;;;;5017330;28;20432;-81
2024/01/01 05:20:03;;;;;;;9.57;2.37;;;8.40;99.90;;;;;;5036981;28;20436;-79
2024/01/01 05:22:30;;;;;;;7.87;2.50;;;8.40;99.90;;;;;;5035593;28;20184;-80
2024/01/01 05:24:56;;;;;;;8.80;2.07;;;8.40;99.90;;;;;;5018682;28;20858;-81
2024/01/01 05:27:21;;;;;;;12.50;3.10;;;8.30;99.90;;;;;;5036210;28;20431;-78
2024/01/01 05:29:47;;;;;;;9.63;2.10;;;8.40;99.90;;;;;;5036527;28;20251;-78
2024/01/01 05:32:13;;;;;;;8.73;2.90;;;8.40;99.90;;;;;;5041470;28;20191;-78
2024/01/01 05:34:41;;;;;;;8.97;2.53;;;8.30;99.90;;;;;;5021412;28;20182;-77
2024/01/01 05:37:07;;;;;;;6.60;1.80;;;8.40;99.90;;;;;;5037244;28;20210;-77
2024/01/01 05:39:33;;;;;;;6.03;2.47;;;8.40;99.90;;;;;;5035378;28;20468;-78
2024/01/01 05:41:58;;;;;;;6.40;2.43;;;8.40;99.90;;;;;;5018702;28;20432;-79
2024/01/01 05:44:24;;;;;;;11.70;2.20;;;8.40;99.90;;;;;;5035866;28;20487;-79
2024/01/01 05:46:50;;;;;;;8.57;2.37;;;8.40;99.90;;;;;;5036656;28;20181;-80
2024/01/01 05:49:17;;;;;;;7.93;2.50;;;8.40;99.90;;;;;;5018440;28;20214;-77
2024/01/01 05:51:43;;;;;;;11.73;2.33;;;8.40;99.90;;;;;;5019614;28;20186;-76
2024/01/01 05:54:09;;;;;;;4.10;1.47;;;8.40;99.90;;;;;;5003629;28;20425;-78
2024/01/01 05:56:35;;;;;;;12.20;2.60;;;8.40;99.90;;;;;;4986841;28;20439;-79
2024/01/01 05:59:00;;;;;;;8.23;2.27;;;8.40;99.90;;;;;;5036411;28;20289;-77
2024/01/01 06:01:26;;;;;;;4.50;2.50;;;8.40;99.90;;;;;;5034460;28;20186;-80
2024/01/01 06:03:52;;;;;;;10.67;2.50;;;8.40;99.90;;;;;;5036526;28;20174;-78
2024/01/01 06:06:17;;;;;;;6.03;2.10;;;8.40;99.90;;;;;;5017900;28;20197;-77
2024/01/01 06:08:43;;;;;;;8.33;1.90;;;8.40;99.90;;;;;;5035383;28;20217;-80
2024/01/01 06:11:09;;;;;;;6.23;1.90;;;8.40;99.90;;;;;;5036091;28;20194;-76
2024/01/01 06:13:35;;;;;;;6.93;2.50;;;8.40;99.90;;;;;;5035444;28;20502;-81
2024/01/01 06:16:03;;;;;;;7.07;2.13;;;8.40;99.90;;;;;;5002911;28;20178;-78
2024/01/01 06:18:28;;;;;;;6.40;2.00;;;8.40;99.90;;;;;;5017071;28;20193;-78
2024/01/01 06:20:54;;;;;;;7.40;2.33;;;8.40;99.90;;;;;;5036299;28;20425;-76
2024/01/01 06:23:20;;;;;;;10.80;3.33;;;8.50;99.90;;;;;;5034717;28;20217;-76
2024/01/01 06:25:45;;;;;;;5.67;1.87;;;8.40;99.90;;;;;;5035152;28;20193;-78
2024/01/01 06:28:11;;;;;;;7.70;2.40;;;8.40;99.90;;;;;;5017472;28;20186;-77
2024/01/01 06:30:37;;;;;;;7.80;1.93;;;8.40;99.90;;;;;;5034692;28;20209;-77
2024/01/01 06:33:04;;;;;;;7.33;3.03;;;8.50;99.90;;;;;;5034607;28;20187;-77
2024/01/01 06:35:30;;;;;;;9.90;2.60;;;8.50;99.90;;;;;;5034002;28;20420;-78
2024/01/01 06:37:57;;;;;;;9.97;2.57;;;8.50;99.90;;;;;;5035424;28;20452;-78
2024/01/01 06:40:23;;;;;;;7.33;2.20;;;8.50;99.90;;;;;;5035326;28;20788;-77
2024/01/01 06:42:48;;;;;;;8.30;1.90;;;8.50;99.90;;;;;;5018443;28;20456;-79
2024/01/01 06:45:14;;;;;;;9.80;2.17;;;8.50;99.90;;;;;;5034755;28;20436;-77
2024/01/01 06:47:40;;;;;;;10.23;2.20;;;8.50;99.90;;;;;;5001528;28;20178;-79
2024/01/01 06:50:06;;;;;;;7.03;2.37;;;8.50;99.90;;;;;;5035348;28;20249;-76
2024/01/01 06:52:31;;;;;;;4.43;2.10;;;8.50;99.90;;;;;;5035401;28;20195;-77
2024/01/01 06:54:58;;;;;;;6.00;1.80;;;8.50;99.90;;;;;;5035954;28;20535;-80
2024/01/01 06:57:23;;;;;;;7.80;2.20;;;8.50;99.90;;;;;;5016894;28;20250;-76
2024/01/01 06:59:49;;;;;;;5.83;1.97;;;8.50;99.90;;;;;;5036444;28;21202;-76
2024/01/01 07:02:15;;;;;;;9.90;2.30;;;8.40;99.90;;;;;;5034545;28;20190;-77
2024/01/01 07:04:41;;;;;;;3.93;1.53;;;8.40;99.90;;;;;;5033550;28;20186;-77
2024/01/01 07:07:06;;;;;;;7.67;2.30;;;8.40;99.90;;;;;;5035728;28;20181;-76
2024/01/01 07:09:32;;;;;;;9.40;2.37;;;8.40;99.90;;;;;;5035574;28;20461;-78
2024/01/01 07:11:58;;;;;;;4.27;1.90;;;8.40;99.90;;;;;;5036453;28;20257;-80
2024/01/01 07:14:25;;;;;;;7.60;2.63;;;8.40;99.90;;;;;;5035834;28;20212;-76
2024/01/01 07:16:54;;;;;;;6.63;1.60;;;8.40;99.90;;;;;;5043900;28;20300;-79
2024/01/01 07:19:19;;;;;;;6.87;1.70;;;8.30;99.90;;;;;;5043955;28;20433;-77
2024/01/01 07:21:47;;;;;;;7.70;2.17;;;8.40;99.90;;;;;;5043956;28;20583;-76
2024/01/01 07:24:13;;;;;;;4.90;1.60;;;8.40;99.90;;;;;;5035241;28;20193;-77
2024/01/01 07:26:38;;;;;;;7.80;2.33;;;8.30;99.90;;;;;;5035253;28;20436;-79
2024/01/01 07:29:05;;;;;;;5.57;2.10;;;8.30;99.90;;;;;;5035364;28;20297;-78
2024/01/01 07:31:31;;;;;;;4.73;1.67;;;8.30;99.90;;;;;;5035770;28;20201;-76
2024/01/01 07:33:57;;;;;;;10.60;2.07;;;8.30;99.90;;;;;;5036238;28;20420;-79
2024/01/01 07:36:22;;;;;;;6.80;2.17;;;8.30;99.90;;;;;;5034560;28;20740;-79
2024/01/01 07:38:48;;;;;;;7.37;2.17;;;8.30;99.90;;;;;;5017083;28;20668;-77
2024/01/01 07:41:13;;;;;;;4.73;2.37;;;8.30;99.90;;;;;;5033749;28;20632;-77
2024/01/01 07:43:39;;;;;;;8.80;2.87;;;8.30;99.90;;;;;;5034914;28;20189;-79
2024/01/01 07:46:09;;;;;;;5.13;2.17;;;8.20;99.90;;;;;;5015942;28;20236;-77
2024/01/01 07:48:35;;;;;;;6.27;2.30;;;8.20;99.90;;;;;;5033404;28;20201;-80
2024/01/01 07:51:00;;;;;;;3.83;1.43;;;8.20;99.90;;;;;;5034321;28;20421;-76
2024/01/01 07:53:26;;;;;;;8.20;2.00;;;8.20;99.90;;;;;;5015209;28;20856;-78
2024/01/01 07:55:52;;;;;;;11.80;2.27;;;8.30;99.90;;;;;;5033728;28;20189;-78
2024/01/01 07:58:17;;;;;;;9.73;2.50;;;8.20;99.90;;;;;;5033128;28;20217;-79
2024/01/01 08:00:43;;;;;;;7.00;1.90;;;8.20;99.90;;;;;;5033744;28;20190;-77
2024/01/01 08:03:09;;;;;;;3.70;1.70;;;8.20;99.90;;;;;;5033602;28;20308;-80
2024/01/01 08:05:34;;;;;;;9.63;2.50;;;8.20;99.90;;;;;;5016166;28;20276;-77
2024/01/01 08:08:00;;;;;;;11.40;2.77;;;8.20;99.90;;;;;;5034253;28;20194;-77
2024/01/01 08:10:26;;;;;;;5.90;2.87;;;8.20;99.90;;;;;;5015338;28;20291;-78
2024/01/01 08:12:52;;;;;;;4.77;1.70;;;8.20;99.90;;;;;;5016039;28;20783;-77
2024/01/01 08:15:17;;;;;;;6.77;2.03;;;8.20;99.90;;;;;;5034075;28;20251;-77
2024/01/01 08:17:43;;;;;;;3.60;1.90;;;8.10;99.90;;;;;;5037423;28;20230;-76
2024/01/01 08:20:09;;;;;;;11.67;3.00;;;8.10;99.90;;;;;;5035944;28;20193;-78
2024/01/01 08:22:36;;;;;;;3.90;1.90;;;8.10;99.90;;;;;;5033377;28;20186;-75
2024/01/01 08:25:01;;;;;;;6.00;2.70;;;8.20;99.90;;;;;;5016263;28;20535;-78
2024/01/01 08:27:27;;;;;;;5.63;1.93;;;8.10;99.90;;;;;;5033600;28;20197;-79
2024/01/01 08:29:53;;;;;;;5.87;1.40;;;8.10;99.90;;;;;;5031076;28;20289;-78
2024/01/01 08:32:19;;;;;;;4.90;1.67;;;8.20;99.90;;;;;;5030978;28;20251;-77
2024/01/01 08:34:44;;;;;;;5.10;2.17;;;8.20;99.90;;;;;;5033091;28;20937;-77
2024/01/01 08:37:10;;;;;;;6.80;1.50;;;8.20;99.90;;;;;;5030983;28;20189;-77
2024/01/01 08:39:36;;;;;;;3.23;1.70;;;8.20;99.90;;;;;;5035965;28;20181;-78
2024/01/01 08:42:02;;;;;;;2.67;1.17;;;8.20;99.90;;;;;;5019373;28;20655;-80
2024/01/01 08:44:29;;;;;;;3.53;1.80;;;8.20;99.90;;;;;;5036405;28;20439;-79
2024/01/01 08:46:55;;;;;;;4.50;1.30;;;8.20;99.90;;;;;;5035366;28;20791;-75
2024/01/01 08:49:21;;;;;;;6.97;1.33;;;8.20;99.90;;;;;;5033934;28;21175;-76
2024/01/01 08:51:47;;;;;;;3.60;1.20;;;8.20;99.90;;;;;;5036960;28;20190;-74
2024/01/01 08:54:16;;;;;;;5.67;1.87;;;8.20;99.90;;;;;;5035665;28;20479;-74
2024/01/01 08:56:43;;;;;;;2.87;1.17;;;8.20;99.90;;;;;;5035868;28;20528;-74
2024/01/01 08:59:11;;;;;;;2.10;1.07;;;8.20;99.90;;;;;;5036158;28;20440;-77
2024/01/01 09:01:36;;;;;;;2.97;1.07;;;8.10;99.90;;;;;;5036371;28;20432;-75
2024/01/01 09:04:04;;;;;;;4.87;1.10;;;8.20;99.90;;;;;;5018570;28;20432;-72
2024/01/01 09:06:30;;;;;;;2.33;1.13;;;8.10;99.90;;;;;;5019187;28;20187;-74
2024/01/01 09:08:57;;;;;;;1.73;0.90;;;8.10;99.90;;;;;;5019331;28;20471;-73
2024/01/01 09:11:23;;;;;;;4.63;1.27;;;8.20;99.90;;;;;;5033270;28;20962;-73
2024/01/01 09:13:49;;;;;;;3.87;1.10;;;8.10;99.90;;;;;;5019116;28;20447;-74
2024/01/01 09:16:14;;;;;;;3.90;1.10;;;8.20;99.90;;;;;;5034659;28;20829;-75
2024/01/01 09:18:40;;;;;;;4.77;1.60;;;8.20;99.90;;;;;;5034528;28;20719;-74
2024/01/01 09:21:13;;;;;;;4.23;2.43;;;8.10;99.90;;;;;;5035355;28;20186;-72
2024/01/01 09:23:38;;;;;;;4.00;1.03;;;8.10;99.90;;;;;;5036133;28;20190;-75
2024/01/01 09:26:04;;;;;;;3.30;1.17;;;8.10;99.90;;;;;;5031987;28;20441;-75
2024/01/01 09:28:31;;;;;;;3.93;1.60;;;8.10;99.90;;;;;;5035693;28;20190;-75
2024/01/01 09:30:57;;;;;;;3.50;1.40;;;8.10;99.90;;;;;;5034859;28;20348;-72
2024/01/01 09:33:23;;;;;;;5.90;1.13;;;8.10;99.90;;;;;;5035992;28;20506;-73
2024/01/01 09:35:51;;;;;;;4.73;1.43;;;8.10;99.90;;;;;;5034782;28;20757;-73
2024/01/01 09:38:17;;;;;;;4.50;1.33;;;8.10;99.90;;;;;;5005834;28;20445;-73
2024/01/01 09:40:42;;;;;;;2.73;1.40;;;8.10;99.90;;;;;;5029635;28;20437;-75
2024/01/01 09:43:15;;;;;;;2.03;1.10;;;8.20;99.90;;;;;;5033380;28;20182;-74
2024/01/01 09:45:42;;;;;;;3.03;2.00;;;8.20;99.90;;;;;;5034608;28;20178;-74
2024/01/01 09:48:07;;;;;;;2.23;1.20;;;8.20;99.90;;;;;;5033961;28;20429;-75
2024/01/01 09:50:34;;;;;;;2.33;1.50;;;8.10;99.90;;;;;;5034347;28;20487;-75
2024/01/01 09:53:00;;;;;;;2.60;1.13;;;8.10;99.90;;;;;;5035451;28;20269;-75
2024/01/01 09:55:26;;;;;;;2.40;1.10;;;8.10;99.90;;;;;;5034218;28;20526;-74
2024/01/01 09:57:51;;;;;;;6.43;1.03;;;8.10;99.90;;;;;;5035736;28;20183;-75
2024/01/01 10:00:23;;;;;;;4.20;1.43;;;8.10;99.90;;;;;;5032399;28;20909;-73
2024/01/01 10:02:49;;;;;;;7.70;2.43;;;8.10;99.90;;;;;;5033987;28;20193;-75
2024/01/01 10:05:16;;;;;;;3.13;1.87;;;8.10;99.90;;;;;;5032913;28;20436;-75
2024/01/01 10:07:43;;;;;;;5.40;1.60;;;8.10;99.90;;;;;;5033902;28;20432;-75
2024/01/01 10:10:10;;;;;;;4.13;2.23;;;8.10;99.90;;;;;;5033873;28;21028;-75
2024/01/01 10:12:36;;;;;;;4.90;1.10;;;8.10;99.90;;;;;;5031219;28;20451;-73
2024/01/01 10:15:02;;;;;;;3.20;1.37;;;8.10;99.90;;;;;;5033246;28;20424;-72
2024/01/01 10:17:28;;;;;;;3.33;1.40;;;8.10;99.90;;;;;;5016356;28;20531;-74
2024/01/01 10:20:00;;;;;;;5.67;1.50;;;8.20;99.90;;;;;;5034843;28;21032;-75
2024/01/01 10:22:30;;;;;;;5.50;1.20;;;8.20;99.90;;;;;;5031835;28;20652;-76
2024/01/01 10:25:11;;;;;;;5.20;1.30;;;8.20;99.90;;;;;;5033178;28;20425;-74
2024/01/01 10:27:38;;;;;;;2.83;1.60;;;8.20;99.90;;;;;;5033762;28;20436;-73
2024/01/01 10:30:04;;;;;;;2.97;1.20;;;8.20;99.90;;;;;;5016509;28;20473;-76
2024/01/01 10:32:30;;;;;;;5.77;1.90;;;8.20;99.90;;;;;;5033876;28;20433;-74
2024/01/01 10:35:01;;;;;;;2.50;1.30;;;8.20;99.90;;;;;;5033651;28;20418;-74
2024/01/01 10:37:28;;;;;;;5.17;1.77;;;8.20;99.90;;;;;;5033727;28;20460;-76
2024/01/01 10:39:54;;;;;;;5.20;1.83;;;8.20;99.90;;;;;;5034249;28;20443;-73
2024/01/01 10:42:20;;;;;;;6.47;1.57;;;8.20;99.90;;;;;;5015648;28;20464;-75
2024/01/01 10:44:46;;;;;;;4.87;1.57;;;8.20;99.90;;;;;;5016184;28;20480;-74
2024/01/01 10:47:14;;;;;;;2.40;1.70;;;8.20;99.90;;;;;;5015269;28;20191;-73
2024/01/01 10:49:50;;;;;;;5.73;1.60;;;8.20;99.90;;;;;;5033117;28;20214;-73
2024/01/01 10:52:56;;;;;;;6.13;1.50;;;8.20;99.90;;;;;;5031257;28;20440;-74
2024/01/01 10:56:10;;;;;;;4.93;2.13;;;8.20;99.90;;;;;;5031463;28;20448;-76
2024/01/01 10:59:12;;;;;;;5.53;2.63;;;8.30;99.90;;;;;;4916804;29;20473;-73
2024/01/01 11:01:39;;;;;;;5.03;2.10;;;8.30;99.90;;;;;;4914989;29;21158;-72
2024/01/01 11:04:05;;;;;;;3.50;1.70;;;8.30;99.90;;;;;;4997913;28;20525;-74
2024/01/01 11:06:31;;;;;;;4.13;1.70;;;8.30;99.90;;;;;;5031997;28;21009;-73
2024/01/01 11:09:18;;;;;;;5.63;1.30;;;8.30;99.90;;;;;;5032209;28;20468;-72
2024/01/01 11:11:47;;;;;;;5.30;1.43;;;8.40;99.90;;;;;;5032459;28;20445;-75
2024/01/01 11:14:26;;;;;;;7.40;1.97;;;8.40;99.90;;;;;;5032288;28;20437;-75
2024/01/01 11:16:53;;;;;;;4.70;1.80;;;8.40;99.90;;;;;;5031485;28;20459;-75
2024/01/01 11:19:35;;;;;;;4.90;1.67;;;8.40;99.90;;;;;;5032686;28;20959;-75
2024/01/01 11:22:29;;;;;;;4.20;2.20;;;8.40;99.90;;;;;;5032538;28;20424;-72
2024/01/01 11:24:55;;;;;;;3.23;1.90;;;8.40;99.90;;;;;;5033035;28;20855;-76
2024/01/01 11:27:33;;;;;;;4.07;1.63;;;8.40;99.90;;;;;;5032858;28;20776;-74
2024/01/01 11:30:07;;;;;;;9.00;1.87;;;8.40;99.90;;;;;;5031686;28;20576;-73
2024/01/01 11:32:36;;;;;;;3.87;1.77;;;8.40;99.90;;;;;;5032586;28;20433;-74
2024/01/01 11:35:07;;;;;;;8.50;1.70;;;8.40;99.90;;;;;;5031331;28;20930;-72
2024/01/01 11:37:34;;;;;;;5.53;2.40;;;8.40;99.90;;;;;;5032016;28;20448;-74
2024/01/01 11:40:02;;;;;;;4.50;1.80;;;8.40;99.90;;;;;;5013812;28;20438;-73
2024/01/01 11:42:28;;;;;;;3.63;1.60;;;8.40;99.90;;;;;;5030800;28;20865;-72
2024/01/01 11:45:19;;;;;;;6.27;1.93;;;8.40;99.90;;;;;;5029768;28;20444;-72
2024/01/01 11:47:45;;;;;;;5.40;1.60;;;8.50;99.90;;;;;;5030750;28;20433;-72
2024/01/01 11:50:12;;;;;;;3.63;1.80;;;8.50;99.90;;;;;;5031841;28;20476;-72
2024/01/01 11:52:38;;;;;;;10.90;1.57;;;8.50;99.90;;;;;;5031120;28;20420;-75
2024/01/01 11:55:04;;;;;;;5.90;1.47;;;8.50;99.90;;;;;;5031740;28;20437;-75
2024/01/01 11:57:30;;;;;;;7.50;2.47;;;8.50;99.90;;;;;;5032285;28;20443;-73
2024/01/01 11:59:57;;;;;;;2.40;1.40;;;8.60;99.90;;;;;;5031551;28;20433;-73
2024/01/01 12:02:23;;;;;;;6.13;1.50;;;8.60;99.90;;;;;;5031946;28;20603;-75
2024/01/01 12:04:54;;;;;;;3.80;1.80;;;8.60;99.90;;;;;;5032280;28;20594;-75
2024/01/01 12:07:33;;;;;;;4.50;2.00;;;8.60;99.90;;;;;;5030568;28;20437;-74
2024/01/01 12:10:10;;;;;;;5.57;1.70;;;8.60;99.90;;;;;;5030406;28;20497;-75
2024/01/01 12:12:46;;;;;;;7.80;1.97;;;8.50;99.90;;;;;;5013673;28;20466;-76
2024/01/01 12:15:17;;;;;;;6.70;1.60;;;8.50;99.90;;;;;;5031752;28;20420;-75
2024/01/01 12:17:51;;;;;;;4.50;2.40;;;8.50;99.90;;;;;;5031885;28;21185;-76
2024/01/01 12:20:18;;;;;;;8.20;2.10;;;8.50;99.90;;;;;;5015077;28;20933;-76
2024/01/01 12:22:45;;;;;;;4.13;1.50;;;8.50;99.90;;;;;;5031496;28;20491;-71
2024/01/01 12:25:15;;;;;;;4.10;1.60;;;8.50;99.90;;;;;;5031654;28;20522;-74
2024/01/01 12:27:42;;;;;;;4.70;1.73;;;8.50;99.90;;;;;;5031783;28;20486;-73
2024/01/01 12:30:08;;;;;;;4.97;1.53;;;8.50;99.90;;;;;;5030651;28;20554;-72
2024/01/01 12:32:34;;;;;;;7.50;1.77;;;8.50;99.90;;;;;;5014324;28;21232;-73
2024/01/01 12:35:00;;;;;;;5.63;1.83;;;8.50;99.90;;;;;;4999515;28;20481;-72
2024/01/01 12:37:26;;;;;;;6.57;1.73;;;8.50;99.90;;;;;;5031148;28;20252;-75
2024/01/01 12:39:52;;;;;;;5.33;1.87;;;8.50;99.90;;;;;;5031702;28;20439;-74
2024/01/01 12:42:17;;;;;;;6.33;1.80;;;8.60;99.90;;;;;;5031322;28;20436;-73
2024/01/01 12:44:43;;;;;;;9.33;2.60;;;8.60;99.90;;;;;;5031198;28;20194;-76
2024/01/01 12:47:10;;;;;;;7.60;2.30;;;8.60;99.90;;;;;;5031534;28;20189;-75
2024/01/01 12:49:36;;;;;;;8.10;2.17;;;8.60;99.90;;;;;;5027204;28;20218;-73
2024/01/01 12:52:03;;;;;;;6.67;1.90;;;8.60;99.90;;;;;;5029452;28;20416;-75
2024/01/01 12:54:28;;;;;;;7.10;1.63;;;8.60;99.90;;;;;;5029301;28;20428;-75